ESSA

Stockholm-Arlanda Airport

Stockholm, Sweden
METAR ESSA 231420Z 26010KT CAVOK 13/04 Q0999 NOSIG
Observed Flight Rules
Sep-23 @ 14:20 UTC (29 minutes ago) Visual Flight Rules
Wind Visibility Clouds
260° at 10 knots 10,000+ meters
Temperatures Readings
Current 13°C / 55°F
Dewpoint 4°C / 39°F
Humidity 55%
Altimeter 29.5" Hg
Pressure 999 hPa
Elevation 61
METAR ESSA 231420Z 26010KT CAVOK 13/04 Q0999 NOSIG
Observed Flight Rules
Sep-23 @ 14:20 UTC
(29 minutes ago)
VFR
Wind Visibility
260° at 10 knots 10,000+ meters
Clouds
Temperature Dewpoint
13°C / 55°F 4°C / 39°F
Humidity Altimeter Pressure
55% 29.5" Hg 999 hPa